createdAt,value
2023-05-14T00:01:21.583Z,11.69
2023-05-14T00:06:23.453Z,11.61
2023-05-14T00:11:25.271Z,11.41
2023-05-14T00:16:27.252Z,11.34
2023-05-14T00:21:29.168Z,11.29
2023-05-14T00:26:31.082Z,11.20
2023-05-14T00:31:33.040Z,11.11
2023-05-14T00:36:35.127Z,10.99
2023-05-14T00:41:37.093Z,10.88
2023-05-14T00:46:38.978Z,10.80
2023-05-14T00:51:40.916Z,10.78
2023-05-14T00:56:46.111Z,10.71
2023-05-14T01:01:48.126Z,10.68
2023-05-14T01:07:06.266Z,10.58
2023-05-14T01:12:21.493Z,10.50
2023-05-14T01:17:26.178Z,10.40
2023-05-14T01:22:28.098Z,10.40
2023-05-14T01:27:50.078Z,10.35
2023-05-14T01:32:53.781Z,10.23
2023-05-14T01:37:59.723Z,10.21
2023-05-14T01:43:01.694Z,10.21
2023-05-14T01:48:05.110Z,10.15
2023-05-14T01:53:07.202Z,10.24
2023-05-14T01:58:09.087Z,10.29
2023-05-14T02:03:10.974Z,10.24
2023-05-14T02:08:12.901Z,10.35
2023-05-14T02:13:15.541Z,10.74
2023-05-14T02:18:17.601Z,11.89
2023-05-14T02:23:25.650Z,12.87
2023-05-14T02:28:33.174Z,13.66
2023-05-14T02:33:35.136Z,14.08
2023-05-14T02:38:37.064Z,14.99
2023-05-14T02:43:38.982Z,16.05
2023-05-14T02:48:40.876Z,16.99
2023-05-14T02:53:42.837Z,17.32
2023-05-14T02:58:44.740Z,17.89
2023-05-14T03:03:46.504Z,18.29
2023-05-14T03:08:48.560Z,19.55
2023-05-14T03:13:50.408Z,20.37
2023-05-14T03:18:52.156Z,19.53
2023-05-14T03:23:54.033Z,19.76
2023-05-14T03:28:56.028Z,19.33
2023-05-14T03:33:58.029Z,20.09
2023-05-14T03:38:59.855Z,21.73
2023-05-14T03:44:01.882Z,22.77
2023-05-14T03:49:03.982Z,20.14
2023-05-14T03:54:06.468Z,20.01
2023-05-14T03:59:08.326Z,20.44
2023-05-14T04:04:10.410Z,22.10
2023-05-14T04:09:12.343Z,21.17
2023-05-14T04:14:14.251Z,22.39
2023-05-14T04:19:16.205Z,24.64
2023-05-14T04:24:18.258Z,24.60
2023-05-14T04:29:20.066Z,25.97
2023-05-14T04:34:21.933Z,26.82
2023-05-14T04:39:23.840Z,26.84
2023-05-14T04:44:25.710Z,28.19
2023-05-14T04:49:27.741Z,29.15
2023-05-14T04:54:29.632Z,29.86
2023-05-14T04:59:31.516Z,28.04
2023-05-14T05:04:33.417Z,30.04
2023-05-14T05:09:35.272Z,30.02
2023-05-14T05:14:37.130Z,31.08
2023-05-14T05:19:43.753Z,33.67
2023-05-14T05:24:47.066Z,32.07
2023-05-14T05:29:50.458Z,31.23
2023-05-14T05:34:52.384Z,33.55
2023-05-14T05:39:54.282Z,32.83
2023-05-14T05:44:56.185Z,33.77
2023-05-14T05:49:58.096Z,34.27
2023-05-14T05:54:59.948Z,35.88
2023-05-14T06:00:01.969Z,33.10
2023-05-14T06:05:07.708Z,33.94
2023-05-14T06:10:09.670Z,35.02
2023-05-14T06:15:11.782Z,37.66
2023-05-14T06:20:13.769Z,35.58
2023-05-14T06:25:15.569Z,32.85
2023-05-14T06:30:17.370Z,33.33
2023-05-14T06:35:19.352Z,33.02
2023-05-14T06:40:21.434Z,30.40
2023-05-14T06:45:23.307Z,22.09
2023-05-14T06:50:25.391Z,21.31
2023-05-14T06:55:27.421Z,29.58
2023-05-14T07:00:30.004Z,33.76
2023-05-14T07:05:31.974Z,28.75
2023-05-14T07:10:33.850Z,31.15
2023-05-14T07:15:35.645Z,25.79
2023-05-14T07:20:37.473Z,22.00
2023-05-14T07:25:39.292Z,20.99
2023-05-14T07:30:41.069Z,21.20
2023-05-14T07:35:42.860Z,24.02
2023-05-14T07:40:44.663Z,26.53
2023-05-14T07:45:46.480Z,22.68
2023-05-14T07:50:49.106Z,21.27
2023-05-14T07:55:50.938Z,26.21
2023-05-14T08:00:52.739Z,22.94
2023-05-14T08:05:54.518Z,21.24
2023-05-14T08:10:56.371Z,20.37
2023-05-14T08:15:58.315Z,19.23
2023-05-14T08:21:01.091Z,18.75
2023-05-14T08:26:04.580Z,18.40
2023-05-14T08:31:06.419Z,18.08
2023-05-14T08:36:08.486Z,18.96
2023-05-14T08:41:10.029Z,19.13
2023-05-14T08:46:12.899Z,18.35
2023-05-14T08:51:14.675Z,18.21
2023-05-14T08:56:16.876Z,19.42
2023-05-14T09:01:19.066Z,19.44
2023-05-14T09:06:20.881Z,18.29
2023-05-14T09:11:22.637Z,18.36
2023-05-14T09:16:25.759Z,18.61
2023-05-14T09:21:28.373Z,18.41
2023-05-14T09:26:32.072Z,18.50
2023-05-14T09:31:34.212Z,18.74
2023-05-14T09:36:36.039Z,18.67
2023-05-14T09:41:37.820Z,18.77
2023-05-14T09:46:39.591Z,19.17
2023-05-14T09:51:41.451Z,19.18
2023-05-14T09:56:43.451Z,19.15
2023-05-14T10:01:45.280Z,18.92
2023-05-14T10:06:47.108Z,18.95
2023-05-14T10:11:49.668Z,19.27
2023-05-14T10:16:51.625Z,19.44
2023-05-14T10:21:57.059Z,19.25
2023-05-14T10:26:58.900Z,18.77
2023-05-14T10:32:03.803Z,18.78
2023-05-14T10:37:07.860Z,18.45
2023-05-14T10:42:15.574Z,19.00
2023-05-14T10:47:17.339Z,18.67
2023-05-14T10:52:19.359Z,18.84
2023-05-14T10:57:21.362Z,18.71
2023-05-14T11:02:30.836Z,19.15
2023-05-14T11:07:39.371Z,19.09
2023-05-14T11:12:43.358Z,18.87
2023-05-14T11:17:45.711Z,18.93
2023-05-14T11:22:48.471Z,18.80
2023-05-14T11:27:50.340Z,18.98
2023-05-14T11:32:53.452Z,18.58
2023-05-14T11:37:55.297Z,17.73
2023-05-14T11:42:57.067Z,18.17
2023-05-14T11:47:58.896Z,18.41
2023-05-14T11:53:00.817Z,18.63
2023-05-14T11:58:02.621Z,18.54
2023-05-14T12:03:04.557Z,18.78
2023-05-14T12:08:41.673Z,18.29
2023-05-14T12:13:43.389Z,18.06
2023-05-14T12:18:45.179Z,18.11
2023-05-14T12:23:46.998Z,18.24
2023-05-14T12:28:48.771Z,18.15
2023-05-14T12:33:50.564Z,18.08
2023-05-14T12:38:58.975Z,17.70
2023-05-14T12:44:02.590Z,17.66
2023-05-14T12:49:04.383Z,17.99
2023-05-14T12:54:06.148Z,17.74
2023-05-14T12:59:07.949Z,17.72
2023-05-14T13:04:10.531Z,17.80
2023-05-14T13:09:12.281Z,17.18
2023-05-14T13:14:14.091Z,17.17
2023-05-14T13:19:15.953Z,17.05
2023-05-14T13:24:17.741Z,16.61
2023-05-14T13:29:19.529Z,17.13
2023-05-14T13:34:21.347Z,17.13
2023-05-14T13:39:23.148Z,17.49
2023-05-14T13:44:25.116Z,17.15
2023-05-14T13:49:26.955Z,17.30
2023-05-14T13:54:28.741Z,17.58
2023-05-14T13:59:30.530Z,17.37
2023-05-14T14:04:32.323Z,17.45
2023-05-14T14:09:34.129Z,17.00
2023-05-14T14:14:36.197Z,16.94
2023-05-14T14:19:37.961Z,16.68
2023-05-14T14:24:39.744Z,16.96
2023-05-14T14:29:41.574Z,17.45
2023-05-14T14:34:43.369Z,17.25
2023-05-14T14:39:45.143Z,17.05
2023-05-14T14:44:46.925Z,16.64
2023-05-14T14:49:48.705Z,16.32
2023-05-14T14:54:50.668Z,16.15
2023-05-14T14:59:52.457Z,16.02
2023-05-14T15:04:54.409Z,16.25
2023-05-14T15:09:56.196Z,16.08
2023-05-14T15:14:58.002Z,16.15
2023-05-14T15:19:59.763Z,15.97
2023-05-14T15:25:01.706Z,15.98
2023-05-14T15:30:06.546Z,16.02
2023-05-14T15:35:08.760Z,16.00
2023-05-14T15:40:11.459Z,15.70
2023-05-14T15:45:13.392Z,15.38
2023-05-14T15:50:15.312Z,15.40
2023-05-14T15:55:17.185Z,15.63
2023-05-14T16:00:19.278Z,15.49
2023-05-14T16:05:21.109Z,15.11
2023-05-14T16:10:23.265Z,15.08
2023-05-14T16:15:25.071Z,14.76
2023-05-14T16:20:26.842Z,14.94
2023-05-14T16:25:29.902Z,14.79
2023-05-14T16:30:31.789Z,14.69
2023-05-14T16:35:33.737Z,14.46
2023-05-14T16:40:35.499Z,14.31
2023-05-14T16:45:37.279Z,14.10
2023-05-14T16:50:39.076Z,13.98
2023-05-14T16:55:40.994Z,13.93
2023-05-14T17:00:42.796Z,13.85
2023-05-14T17:05:44.608Z,13.85
2023-05-14T17:10:46.440Z,13.98
2023-05-14T17:15:48.296Z,13.95
2023-05-14T17:20:50.134Z,13.93
2023-05-14T17:25:51.910Z,13.81
2023-05-14T17:30:53.700Z,13.69
2023-05-14T17:35:55.553Z,13.48
2023-05-14T17:40:57.307Z,13.51
2023-05-14T17:45:59.123Z,13.36
2023-05-14T17:51:00.907Z,13.28
2023-05-14T17:56:02.772Z,13.17
2023-05-14T18:01:04.729Z,12.97
2023-05-14T18:06:06.663Z,12.91
2023-05-14T18:11:08.694Z,12.83
2023-05-14T18:16:10.779Z,12.71
2023-05-14T18:21:12.750Z,12.63
2023-05-14T18:26:14.753Z,12.57
2023-05-14T18:31:16.737Z,12.48
2023-05-14T18:36:18.654Z,12.47
2023-05-14T18:41:20.534Z,12.38
2023-05-14T18:46:22.556Z,12.31
2023-05-14T18:51:24.436Z,12.25
2023-05-14T18:56:26.299Z,12.16
2023-05-14T19:01:28.286Z,12.11
2023-05-14T19:06:30.343Z,12.05
2023-05-14T19:11:32.276Z,11.99
2023-05-14T19:16:34.283Z,11.93
2023-05-14T19:21:36.288Z,11.87
2023-05-14T19:26:38.214Z,11.84
2023-05-14T19:31:40.337Z,11.77
2023-05-14T19:36:42.246Z,11.76
2023-05-14T19:41:44.232Z,11.69
2023-05-14T19:46:46.302Z,11.67
2023-05-14T19:51:48.268Z,11.61
2023-05-14T19:56:50.239Z,11.58
2023-05-14T20:01:52.132Z,11.55
2023-05-14T20:06:54.158Z,11.54
2023-05-14T20:11:56.054Z,11.49
2023-05-14T20:16:58.056Z,11.43
2023-05-14T20:22:00.055Z,11.43
2023-05-14T20:27:02.087Z,11.32
2023-05-14T20:32:04.179Z,11.31
2023-05-14T20:37:06.250Z,11.29
2023-05-14T20:42:08.297Z,11.26
2023-05-14T20:47:10.215Z,11.19
2023-05-14T20:52:13.091Z,11.18
2023-05-14T20:57:15.167Z,11.12
2023-05-14T21:02:17.330Z,11.06
2023-05-14T21:07:19.213Z,10.98
2023-05-14T21:12:21.092Z,10.88
2023-05-14T21:17:23.017Z,10.86
2023-05-14T21:22:25.187Z,10.85
2023-05-14T21:27:27.120Z,10.78
2023-05-14T21:32:29.008Z,10.65
2023-05-14T21:37:30.922Z,10.69
2023-05-14T21:42:32.837Z,10.64
2023-05-14T21:47:34.750Z,10.62
2023-05-14T21:52:37.288Z,10.56
2023-05-14T21:57:39.005Z,10.52
2023-05-14T22:02:40.953Z,10.52
2023-05-14T22:07:42.928Z,10.55
2023-05-14T22:12:45.136Z,10.47
2023-05-14T22:17:47.137Z,10.46
2023-05-14T22:22:49.153Z,10.45
2023-05-14T22:27:51.106Z,10.38
2023-05-14T22:32:53.010Z,10.41
2023-05-14T22:37:55.000Z,10.35
2023-05-14T22:42:57.055Z,10.30
2023-05-14T22:47:58.981Z,10.27
2023-05-14T22:53:00.887Z,10.22
2023-05-14T22:58:02.984Z,10.12
2023-05-14T23:03:05.012Z,10.04
2023-05-14T23:08:06.992Z,9.98
2023-05-14T23:13:08.913Z,9.93
2023-05-14T23:18:10.985Z,9.90
2023-05-14T23:23:13.058Z,9.84
2023-05-14T23:28:15.066Z,9.78
2023-05-14T23:33:16.898Z,9.69
2023-05-14T23:38:18.867Z,9.65
2023-05-14T23:43:20.787Z,9.59
2023-05-14T23:48:22.750Z,9.51
2023-05-14T23:53:24.620Z,9.44
2023-05-14T23:58:26.573Z,9.40
